createdAt,value
2018-03-25T03:32:34.893Z,19.73
2018-03-25T03:35:08.752Z,21.80
2018-03-25T03:37:43.321Z,24.00
2018-03-25T03:40:17.970Z,21.95
2018-03-25T03:42:51.808Z,22.87
2018-03-25T03:45:25.642Z,23.48
2018-03-25T03:47:59.672Z,22.35
2018-03-25T03:50:34.394Z,23.02
2018-03-25T03:53:08.228Z,23.95
2018-03-25T03:55:41.881Z,22.50
2018-03-25T03:58:35.238Z,22.00
2018-03-25T04:01:09.080Z,24.67
2018-03-25T04:03:42.823Z,22.90
2018-03-25T04:06:17.509Z,24.40
2018-03-25T04:08:52.035Z,25.08
2018-03-25T04:11:25.767Z,24.05
2018-03-25T04:14:00.381Z,24.60
2018-03-25T04:16:34.222Z,22.17
2018-03-25T04:19:08.080Z,23.27
2018-03-25T04:21:41.988Z,24.12
2018-03-25T04:24:16.637Z,24.10
2018-03-25T04:26:50.400Z,26.40
2018-03-25T04:29:24.461Z,23.50
2018-03-25T04:31:58.132Z,23.50
2018-03-25T04:34:32.581Z,26.58
2018-03-25T04:37:07.273Z,25.95
2018-03-25T04:39:41.223Z,25.08
2018-03-25T04:42:15.049Z,23.87
2018-03-25T04:44:49.134Z,25.70
2018-03-25T04:47:23.643Z,25.35
2018-03-25T04:49:57.499Z,24.40
2018-03-25T04:52:31.953Z,25.67
2018-03-25T04:55:05.995Z,24.65
2018-03-25T04:57:39.640Z,24.40
2018-03-25T05:00:14.196Z,25.30
2018-03-25T05:02:48.103Z,26.58
2018-03-25T05:05:21.887Z,24.12
2018-03-25T05:07:55.796Z,23.95
2018-03-25T05:10:29.554Z,26.33
2018-03-25T05:13:03.352Z,24.17
2018-03-25T05:15:38.287Z,25.17
2018-03-25T05:18:12.074Z,24.67
2018-03-25T05:20:46.508Z,25.65
2018-03-25T05:23:20.196Z,27.13
2018-03-25T05:25:54.838Z,24.98
2018-03-25T05:28:29.456Z,23.90
2018-03-25T05:31:03.285Z,25.45
2018-03-25T05:33:37.480Z,26.42
2018-03-25T05:36:11.337Z,25.98
2018-03-25T05:38:45.516Z,24.83
2018-03-25T05:41:19.332Z,26.55
2018-03-25T05:43:53.833Z,25.92
2018-03-25T05:46:27.580Z,24.70
2018-03-25T05:49:01.349Z,25.08
2018-03-25T05:51:35.971Z,23.33
2018-03-25T05:54:09.675Z,27.17
2018-03-25T05:56:44.289Z,25.85
2018-03-25T05:59:18.011Z,26.85
2018-03-25T06:01:51.971Z,25.25
2018-03-25T06:04:26.515Z,24.98
2018-03-25T06:07:01.071Z,25.42
2018-03-25T06:09:34.724Z,25.80
2018-03-25T06:12:09.391Z,26.05
2018-03-25T06:14:43.120Z,25.85
2018-03-25T06:17:17.735Z,24.05
2018-03-25T06:19:52.222Z,28.52
2018-03-25T06:22:26.867Z,25.50
2018-03-25T06:25:01.101Z,26.20
2018-03-25T06:27:34.776Z,25.27
2018-03-25T06:30:08.633Z,26.65
2018-03-25T06:32:42.409Z,26.20
2018-03-25T06:35:16.135Z,26.67
2018-03-25T06:37:50.602Z,24.67
2018-03-25T06:40:24.400Z,27.90
2018-03-25T06:42:58.164Z,30.20
2018-03-25T06:45:32.008Z,25.35
2018-03-25T06:48:05.777Z,26.45
2018-03-25T06:50:39.860Z,28.45
2018-03-25T06:53:14.351Z,26.05
2018-03-25T06:55:48.128Z,26.10
2018-03-25T06:58:22.003Z,25.52
2018-03-25T07:00:55.856Z,25.92
2018-03-25T07:03:29.825Z,25.00
2018-03-25T07:06:03.560Z,25.23
2018-03-25T07:08:37.364Z,25.37
2018-03-25T07:11:11.048Z,24.17
2018-03-25T07:13:44.897Z,26.60
2018-03-25T07:16:18.593Z,26.25
2018-03-25T07:18:53.277Z,25.85
2018-03-25T07:21:26.964Z,23.75
2018-03-25T07:24:00.916Z,22.65
2018-03-25T07:26:34.723Z,24.20
2018-03-25T07:29:08.564Z,24.37
2018-03-25T07:31:42.436Z,25.15
2018-03-25T07:34:17.279Z,25.23
2018-03-25T07:36:51.091Z,25.27
2018-03-25T07:39:24.954Z,24.37
2018-03-25T07:41:58.750Z,25.45
2018-03-25T07:44:32.564Z,24.50
2018-03-25T07:47:06.365Z,23.77
2018-03-25T07:49:40.065Z,25.83
2018-03-25T07:52:13.775Z,24.37
2018-03-25T07:54:47.556Z,23.42
2018-03-25T07:57:21.402Z,24.40
2018-03-25T07:59:56.035Z,25.15
2018-03-25T08:02:29.933Z,25.17
2018-03-25T08:05:03.598Z,24.00
2018-03-25T08:07:38.144Z,25.98
2018-03-25T08:10:12.006Z,25.20
2018-03-25T08:12:45.796Z,25.45
2018-03-25T08:15:19.602Z,25.25
2018-03-25T08:17:53.357Z,24.95
2018-03-25T08:20:27.116Z,24.70
2018-03-25T08:23:01.678Z,22.52
2018-03-25T08:25:35.550Z,23.52
2018-03-25T08:28:09.289Z,28.52
2018-03-25T08:30:43.123Z,24.30
2018-03-25T08:33:17.017Z,24.67
2018-03-25T08:35:51.543Z,25.05
2018-03-25T08:38:26.158Z,26.17
2018-03-25T08:41:00.686Z,26.40
2018-03-25T08:43:34.600Z,26.92
2018-03-25T08:46:09.274Z,28.90
2018-03-25T08:48:43.304Z,28.17
2018-03-25T08:51:17.425Z,28.67
2018-03-25T08:53:51.597Z,26.58
2018-03-25T08:56:25.352Z,28.08
2018-03-25T08:58:59.268Z,28.05
2018-03-25T09:01:33.109Z,26.77
2018-03-25T09:04:06.937Z,27.67
2018-03-25T09:06:40.664Z,30.77
2018-03-25T09:09:15.317Z,27.27
2018-03-25T09:11:48.913Z,27.10
2018-03-25T09:14:22.636Z,28.38
2018-03-25T09:16:57.273Z,28.45
2018-03-25T09:19:31.142Z,28.95
2018-03-25T09:22:05.697Z,28.95
2018-03-25T09:24:40.189Z,27.95
2018-03-25T09:27:14.241Z,29.17
2018-03-25T09:29:48.109Z,27.73
2018-03-25T09:32:22.360Z,27.42
2018-03-25T09:34:56.132Z,28.08
2018-03-25T09:37:31.508Z,28.87
2018-03-25T09:40:06.105Z,27.67
2018-03-25T09:42:40.276Z,30.10
2018-03-25T09:45:13.948Z,27.83
2018-03-25T09:47:47.686Z,28.38
2018-03-25T09:50:21.856Z,28.05
2018-03-25T09:52:56.404Z,30.25
2018-03-25T09:55:31.081Z,28.60
2018-03-25T09:58:04.779Z,26.75
2018-03-25T10:00:39.336Z,27.70
2018-03-25T10:06:07.548Z,29.27
2018-03-25T10:08:41.404Z,27.33
2018-03-25T10:11:15.156Z,28.20
2018-03-25T10:13:48.757Z,26.62
2018-03-25T10:16:22.504Z,27.02
2018-03-25T10:18:56.159Z,28.95
2018-03-25T10:21:30.843Z,26.60
2018-03-25T10:24:04.494Z,26.87
2018-03-25T10:26:38.385Z,26.92
2018-03-25T10:29:12.085Z,28.38
2018-03-25T10:31:46.716Z,27.48
2018-03-25T10:34:21.317Z,27.00
2018-03-25T10:36:55.089Z,28.15
2018-03-25T10:39:29.676Z,24.55
2018-03-25T10:42:03.528Z,23.55
2018-03-25T10:44:37.309Z,23.35
2018-03-25T10:47:11.116Z,25.60
2018-03-25T10:49:44.960Z,25.27
2018-03-25T10:52:19.616Z,25.70
2018-03-25T10:54:53.640Z,27.00
2018-03-25T10:57:27.364Z,27.30
2018-03-25T11:00:01.199Z,24.92
2018-03-25T11:02:36.104Z,25.62
2018-03-25T11:05:09.851Z,24.23
2018-03-25T11:07:43.622Z,24.30
2018-03-25T11:10:17.411Z,24.73
2018-03-25T11:12:52.016Z,25.62
2018-03-25T11:15:25.989Z,25.15
2018-03-25T11:17:59.821Z,23.80
2018-03-25T11:20:34.342Z,24.12
2018-03-25T11:23:09.053Z,24.63
2018-03-25T11:25:42.796Z,22.65
2018-03-25T11:28:16.671Z,23.10
2018-03-25T11:30:51.193Z,24.10
2018-03-25T11:33:25.877Z,22.55
2018-03-25T11:35:59.624Z,24.92
2018-03-25T11:38:34.392Z,23.00
2018-03-25T11:41:08.878Z,23.20
2018-03-25T11:43:43.520Z,21.90
2018-03-25T11:46:18.032Z,22.05
2018-03-25T11:48:51.880Z,20.83
2018-03-25T11:51:25.796Z,22.02
2018-03-25T11:53:59.716Z,22.30
2018-03-25T11:56:33.573Z,22.20
2018-03-25T11:59:07.374Z,22.20
2018-03-25T12:01:41.590Z,19.90
2018-03-25T12:04:15.297Z,20.48
2018-03-25T12:06:49.915Z,21.27
2018-03-25T12:09:24.517Z,20.42
2018-03-25T12:11:58.399Z,20.90
2018-03-25T12:14:32.196Z,20.10
2018-03-25T12:17:05.965Z,15.00
2018-03-25T12:19:39.801Z,20.25
2018-03-25T12:22:13.893Z,23.35
2018-03-25T12:24:48.483Z,17.45
2018-03-25T12:27:23.052Z,21.30
2018-03-25T12:29:56.859Z,18.37
2018-03-25T12:32:30.707Z,14.80
2018-03-25T12:35:05.262Z,13.30
2018-03-25T12:37:39.925Z,19.95
2018-03-25T12:40:13.811Z,16.67
2018-03-25T12:42:47.616Z,14.32
2018-03-25T12:45:21.452Z,17.52
2018-03-25T12:47:55.710Z,17.20
2018-03-25T12:50:29.553Z,16.27
2018-03-25T12:53:04.194Z,18.75
2018-03-25T12:55:39.796Z,18.60
2018-03-25T12:58:13.464Z,17.62
2018-03-25T13:00:48.052Z,16.37
2018-03-25T13:03:21.895Z,14.85
2018-03-25T13:05:55.813Z,16.40
2018-03-25T13:08:29.575Z,17.42
2018-03-25T13:11:03.425Z,17.37
2018-03-25T13:13:37.307Z,18.17
2018-03-25T13:16:10.984Z,17.40
2018-03-25T13:18:44.730Z,19.37
2018-03-25T13:21:18.537Z,16.20
2018-03-25T13:23:52.343Z,18.58
2018-03-25T13:26:26.445Z,15.75
2018-03-25T13:29:00.381Z,17.58
2018-03-25T13:31:34.990Z,16.62
2018-03-25T13:34:08.756Z,16.75
2018-03-25T13:36:43.392Z,16.70
2018-03-25T13:39:17.094Z,17.98
2018-03-25T13:41:51.703Z,18.08
2018-03-25T13:44:26.352Z,19.87
2018-03-25T13:47:00.245Z,18.35
2018-03-25T13:49:34.111Z,16.77
2018-03-25T13:52:08.993Z,18.37
2018-03-25T13:54:43.497Z,17.65
2018-03-25T13:57:17.246Z,16.08
2018-03-25T13:59:52.719Z,18.12
2018-03-25T14:02:26.576Z,20.73
2018-03-25T14:05:01.297Z,17.75
2018-03-25T14:07:35.106Z,17.35
2018-03-25T14:10:08.917Z,17.52
2018-03-25T14:12:42.791Z,18.25
2018-03-25T14:15:17.324Z,18.48
2018-03-25T14:17:51.193Z,18.52
2018-03-25T14:20:25.044Z,17.77
2018-03-25T14:22:58.748Z,18.27
2018-03-25T14:25:32.562Z,16.83
2018-03-25T14:28:06.424Z,18.40
2018-03-25T14:30:40.990Z,17.83
2018-03-25T14:33:14.862Z,18.05
2018-03-25T14:35:48.648Z,17.12
2018-03-25T14:38:22.557Z,16.67
2018-03-25T14:40:57.219Z,18.55
2018-03-25T14:43:31.016Z,17.92
2018-03-25T14:46:04.933Z,18.80
2018-03-25T14:48:39.590Z,17.75
2018-03-25T14:51:13.673Z,19.02
2018-03-25T14:53:47.447Z,18.92
2018-03-25T14:56:21.237Z,18.42
2018-03-25T14:58:55.824Z,18.27
2018-03-25T15:01:29.476Z,19.12
2018-03-25T15:04:03.328Z,17.90
2018-03-25T15:06:37.159Z,19.08
2018-03-25T15:09:11.000Z,19.15
2018-03-25T15:11:45.547Z,20.00
2018-03-25T15:14:20.088Z,20.05
2018-03-25T15:16:53.869Z,19.70
2018-03-25T15:19:27.704Z,18.75
2018-03-25T15:22:01.529Z,19.85
2018-03-25T15:24:35.393Z,19.52
2018-03-25T15:27:09.925Z,20.40
2018-03-25T15:29:44.574Z,20.37
2018-03-25T15:32:18.304Z,18.98
2018-03-25T15:34:52.017Z,18.58
2018-03-25T15:37:25.860Z,18.27
2018-03-25T15:39:59.592Z,17.20
2018-03-25T15:42:33.683Z,18.85
2018-03-25T15:45:07.342Z,19.33
2018-03-25T15:47:41.524Z,18.02
2018-03-25T15:50:15.245Z,18.27
2018-03-25T15:52:49.118Z,19.20
2018-03-25T15:55:22.925Z,19.62
2018-03-25T15:57:56.708Z,19.70
2018-03-25T16:00:31.372Z,18.85
2018-03-25T16:03:05.085Z,18.77
2018-03-25T16:05:38.945Z,20.75
2018-03-25T16:08:12.795Z,19.33
2018-03-25T16:10:46.644Z,21.65
2018-03-25T16:13:21.429Z,19.95
2018-03-25T16:15:55.251Z,19.23
2018-03-25T16:18:29.847Z,19.37
2018-03-25T16:21:04.436Z,20.00
2018-03-25T16:23:38.096Z,19.40
2018-03-25T16:26:12.017Z,20.23
2018-03-25T16:28:45.807Z,19.12
2018-03-25T16:31:19.652Z,18.52
2018-03-25T16:33:53.421Z,19.80
2018-03-25T16:36:27.213Z,19.40
2018-03-25T16:39:01.748Z,19.35
2018-03-25T16:41:36.338Z,19.65
2018-03-25T16:44:10.329Z,19.55
2018-03-25T16:46:44.164Z,18.90
2018-03-25T16:49:18.096Z,19.40
2018-03-25T16:51:51.741Z,19.62
2018-03-25T16:54:25.808Z,21.50
2018-03-25T16:56:59.680Z,19.00
2018-03-25T16:59:33.424Z,19.10
2018-03-25T17:02:07.384Z,18.62
2018-03-25T17:04:41.139Z,18.25
2018-03-25T17:07:14.984Z,17.08
2018-03-25T17:09:48.793Z,17.75
2018-03-25T17:12:24.077Z,18.00
2018-03-25T17:14:58.961Z,17.30
2018-03-25T17:17:33.306Z,18.77
2018-03-25T17:20:07.976Z,17.08
2018-03-25T17:22:41.783Z,17.65
2018-03-25T17:25:16.697Z,15.65
2018-03-25T17:27:51.305Z,17.75
2018-03-25T17:30:25.132Z,17.40
2018-03-25T17:32:58.948Z,19.55
2018-03-25T17:35:32.760Z,19.65
2018-03-25T17:38:07.985Z,18.30
2018-03-25T17:40:41.871Z,20.88
2018-03-25T17:43:15.630Z,21.35
2018-03-25T17:45:49.416Z,18.60
2018-03-25T17:48:23.244Z,19.15
2018-03-25T17:50:57.028Z,20.10
2018-03-25T17:53:30.862Z,18.45
2018-03-25T17:56:05.328Z,20.85
2018-03-25T17:58:39.069Z,18.70
2018-03-25T18:01:12.976Z,19.08
2018-03-25T18:03:47.570Z,17.52
2018-03-25T18:06:21.417Z,19.48
2018-03-25T18:08:55.385Z,19.08
2018-03-25T18:11:29.972Z,19.35
2018-03-25T18:14:03.822Z,18.45
2018-03-25T18:16:38.436Z,19.17
2018-03-25T18:19:12.995Z,19.37
2018-03-25T18:21:46.963Z,19.55
2018-03-25T18:24:20.849Z,20.85
2018-03-25T18:26:54.648Z,20.58
2018-03-25T18:29:28.425Z,19.62
2018-03-25T18:32:03.750Z,19.27
2018-03-25T18:34:37.593Z,19.20
2018-03-25T18:37:11.401Z,19.33
2018-03-25T18:39:45.176Z,20.10
2018-03-25T18:42:19.773Z,19.17
2018-03-25T18:44:54.019Z,21.02
2018-03-25T18:47:27.777Z,21.12
2018-03-25T18:50:02.673Z,20.60
2018-03-25T18:52:36.604Z,23.45
2018-03-25T18:55:10.384Z,21.52
2018-03-25T18:57:44.187Z,21.20
2018-03-25T19:00:18.779Z,20.62
2018-03-25T19:02:52.557Z,21.00
2018-03-25T19:05:26.479Z,19.12
2018-03-25T19:08:01.095Z,19.35
2018-03-25T19:10:35.665Z,21.50
2018-03-25T19:13:10.240Z,20.50
2018-03-25T19:15:44.121Z,19.67
2018-03-25T19:18:17.941Z,19.70
2018-03-25T19:20:51.804Z,18.77
2018-03-25T19:23:25.466Z,19.10
2018-03-25T19:25:59.348Z,18.87
2018-03-25T19:28:32.957Z,19.25
2018-03-25T19:31:06.672Z,18.37
2018-03-25T19:33:40.489Z,22.17
2018-03-25T19:36:15.049Z,20.58
2018-03-25T19:38:48.747Z,22.52
2018-03-25T19:41:22.852Z,20.60
2018-03-25T19:43:57.252Z,19.95
2018-03-25T19:46:31.907Z,20.00
2018-03-25T19:49:05.807Z,21.48
2018-03-25T19:51:39.517Z,20.33
2018-03-25T19:54:13.353Z,20.92
2018-03-25T19:56:47.937Z,21.25
2018-03-25T19:59:21.701Z,19.95
2018-03-25T20:01:55.360Z,19.15
2018-03-25T20:04:29.204Z,21.30
2018-03-25T20:07:03.184Z,18.30
2018-03-25T20:09:37.000Z,20.30
2018-03-25T20:12:11.596Z,19.45
2018-03-25T20:14:46.197Z,19.67
2018-03-25T20:17:19.917Z,18.80
2018-03-25T20:19:55.017Z,18.98
2018-03-25T20:22:28.990Z,18.33
2018-03-25T20:25:02.772Z,20.58
2018-03-25T20:27:36.797Z,19.12
2018-03-25T20:30:10.509Z,22.02
2018-03-25T20:32:44.373Z,22.17
2018-03-25T20:35:18.913Z,24.27
2018-03-25T20:37:52.729Z,23.05
2018-03-25T20:40:27.258Z,22.17
2018-03-25T20:43:01.004Z,19.27
2018-03-25T20:45:34.785Z,20.52
2018-03-25T20:48:08.597Z,21.20
2018-03-25T20:50:42.391Z,22.87
2018-03-25T20:53:16.188Z,20.58
2018-03-25T20:55:50.008Z,20.42
2018-03-25T20:58:24.624Z,18.50
